Time;durP1;ratioP1;P1;durP2;ratioP2;P2;SDS_P1;SDS_P2;PMS_P1;PMS_P2;Temp;Humidity;BMP_temperature;BMP_pressure;BME280_temperature;BME280_humidity;BME280_pressure;Samples;Min_cycle;Max_cycle;Signal;HPM_P1;HPM_P2
2021/10/04 00:00:31;;;;;;;;;;;19.20;74.00;;;;;;4978766;28;95498;-50
2021/10/04 00:03:02;;;;;;;;;;;19.30;74.30;;;;;;4985068;28;97178;-62
2021/10/04 00:05:33;;;;;;;;;;;19.20;74.30;;;;;;4982418;28;95353;-48
2021/10/04 00:08:04;;;;;;;;;;;19.30;74.30;;;;;;4984889;28;96140;-47
2021/10/04 00:10:35;;;;;;;;;;;19.30;66.50;;;;;;4979278;28;95854;-60
2021/10/04 00:13:05;;;;;;;;;;;19.20;74.00;;;;;;4977000;28;96102;-62
2021/10/04 00:15:38;;;;;;;;;;;19.20;73.90;;;;;;4980705;28;96002;-62
2021/10/04 00:18:09;;;;;;;;;;;19.20;74.00;;;;;;4985586;28;96009;-62
2021/10/04 00:20:40;;;;;;;;;;;19.20;74.00;;;;;;4984530;28;96445;-62
2021/10/04 00:23:10;;;;;;;;;;;19.20;73.70;;;;;;4989949;28;96595;-61
2021/10/04 00:25:39;;;;;;;;;;;19.10;73.70;;;;;;4984722;28;95755;-60
2021/10/04 00:28:09;;;;;;;;;;;19.20;73.70;;;;;;4983179;28;96230;-62
2021/10/04 00:30:39;;;;;;;;;;;19.10;73.60;;;;;;4980894;28;96838;-61
2021/10/04 00:33:09;;;;;;;;;;;18.80;62.40;;;;;;4981789;28;95802;-58
2021/10/04 00:35:38;;;;;;;;;;;18.50;57.00;;;;;;4984792;28;95635;-59
2021/10/04 00:38:08;;;;;;;;;;;18.20;61.60;;;;;;4983028;28;96417;-61
2021/10/04 00:40:39;;;;;;;;;;;17.80;57.90;;;;;;4983992;28;95771;-63
2021/10/04 00:43:09;;;;;;;;;;;17.60;57.90;;;;;;4984598;28;97614;-60
2021/10/04 00:45:39;;;;;;;;;;;17.50;61.20;;;;;;4976613;28;96215;-61
2021/10/04 00:48:08;;;;;;;;;;;17.70;64.50;;;;;;4965253;28;95772;-64
2021/10/04 00:50:37;;;;;;;;;;;18.00;66.70;;;;;;4965368;28;95952;-62
2021/10/04 00:53:08;;;;;;;;;;;18.20;68.50;;;;;;4964925;28;95833;-62
2021/10/04 00:55:38;;;;;;;;;;;18.30;69.30;;;;;;4965371;28;95247;-62
2021/10/04 00:58:11;;;;;;;;;;;18.50;69.90;;;;;;4967828;28;96547;-63
2021/10/04 01:00:42;;;;;;;;;;;18.60;70.10;;;;;;4963484;28;95986;-64
2021/10/04 01:03:15;;;;;;;;;;;18.70;70.30;;;;;;4968270;28;95947;-53
2021/10/04 01:05:46;;;;;;;;;;;18.80;69.90;;;;;;4967284;28;96270;-49
2021/10/04 01:08:17;;;;;;;;;;;18.90;70.10;;;;;;4968741;28;95985;-63
2021/10/04 01:10:47;;;;;;;;;;;19.00;70.10;;;;;;4961637;28;96317;-62
2021/10/04 01:13:20;;;;;;;;;;;19.00;70.00;;;;;;4980620;28;96849;-61
2021/10/04 01:15:51;;;;;;;;;;;19.10;70.10;;;;;;4963279;28;95275;-62
2021/10/04 01:18:23;;;;;;;;;;;19.20;70.30;;;;;;4967741;28;95686;-52
2021/10/04 01:20:53;;;;;;;;;;;19.20;70.30;;;;;;4968970;28;95882;-62
2021/10/04 01:23:22;;;;;;;;;;;19.30;70.40;;;;;;4967060;28;96611;-63
2021/10/04 01:25:51;;;;;;;;;;;19.40;70.50;;;;;;4968262;28;95948;-64
2021/10/04 01:28:21;;;;;;;;;;;19.50;70.50;;;;;;4968981;28;95315;-63
2021/10/04 01:30:52;;;;;;;;;;;19.60;70.50;;;;;;4964581;28;95436;-59
2021/10/04 01:33:23;;;;;;;;;;;19.60;70.50;;;;;;4968023;28;96485;-56
2021/10/04 01:35:53;;;;;;;;;;;19.60;70.40;;;;;;4967687;28;96718;-61
2021/10/04 01:38:23;;;;;;;;;;;19.70;70.40;;;;;;4966517;28;96586;-62
2021/10/04 01:40:53;;;;;;;;;;;19.80;70.40;;;;;;4967387;28;95748;-63
2021/10/04 01:43:24;;;;;;;;;;;19.80;70.40;;;;;;4967641;28;96472;-59
2021/10/04 01:45:54;;;;;;;;;;;19.90;70.40;;;;;;4959558;28;95802;-61
2021/10/04 01:48:24;;;;;;;;;;;19.90;70.40;;;;;;4965804;28;96839;-62
2021/10/04 01:50:56;;;;;;;;;;;20.00;70.40;;;;;;4968112;28;95786;-61
2021/10/04 01:53:27;;;;;;;;;;;20.00;70.20;;;;;;4966589;28;98139;-62
2021/10/04 01:55:57;;;;;;;;;;;20.10;70.20;;;;;;4968978;28;95336;-63
2021/10/04 01:58:29;;;;;;;;;;;20.10;70.20;;;;;;4968418;28;96518;-64
2021/10/04 02:01:00;;;;;;;;;;;20.10;70.80;;;;;;4963827;28;95342;-62
2021/10/04 02:03:32;;;;;;;;;;;20.20;70.10;;;;;;4967691;28;95859;-61
2021/10/04 02:06:03;;;;;;;;;;;20.20;70.40;;;;;;4998360;28;97615;-60
2021/10/04 02:08:34;;;;;;;;;;;20.30;70.30;;;;;;4968603;28;95700;-61
2021/10/04 02:11:05;;;;;;;;;;;20.30;70.20;;;;;;4963009;28;97053;-61
2021/10/04 02:13:35;;;;;;;;;;;20.40;70.30;;;;;;4965177;28;100626;-60
2021/10/04 02:16:06;;;;;;;;;;;20.40;70.30;;;;;;4963283;28;96300;-62
2021/10/04 02:18:40;;;;;;;;;;;20.50;70.20;;;;;;4967937;28;95688;-49
2021/10/04 02:21:17;;;;;;;;;;;20.50;70.30;;;;;;4967611;28;96211;-61
2021/10/04 02:23:47;;;;;;;;;;;20.60;70.20;;;;;;4967211;28;96833;-62
2021/10/04 02:26:16;;;;;;;;;;;20.60;70.10;;;;;;4967358;28;95732;-61
2021/10/04 02:28:46;;;;;;;;;;;20.70;70.10;;;;;;4968529;28;96050;-62
2021/10/04 02:31:16;;;;;;;;;;;20.70;69.90;;;;;;4994134;28;95903;-64
2021/10/04 02:33:47;;;;;;;;;;;20.80;69.80;;;;;;4968099;28;96805;-63
2021/10/04 02:36:23;;;;;;;;;;;20.80;69.80;;;;;;4965945;28;97243;-61
2021/10/04 02:38:57;;;;;;;;;;;20.80;67.10;;;;;;4997070;28;95757;-47
2021/10/04 02:41:29;;;;;;;;;;;20.60;67.10;;;;;;4968172;28;95816;-47
2021/10/04 02:44:00;;;;;;;;;;;20.60;66.70;;;;;;4966956;28;95928;-47
2021/10/04 02:46:36;;;;;;;;;;;20.50;66.90;;;;;;4957861;28;96077;-61
2021/10/04 02:49:07;;;;;;;;;;;20.40;66.70;;;;;;4965557;28;95730;-48
2021/10/04 02:51:37;;;;;;;;;;;20.40;67.10;;;;;;4965900;28;95820;-60
2021/10/04 02:54:10;;;;;;;;;;;20.40;59.50;;;;;;4965594;28;96834;-60
2021/10/04 02:56:40;;;;;;;;;;;20.20;67.70;;;;;;4964856;28;96001;-62
2021/10/04 02:59:13;;;;;;;;;;;20.20;66.90;;;;;;4964691;28;97090;-62
2021/10/04 03:01:49;;;;;;;;;;;20.10;66.80;;;;;;4991850;28;96954;-61
2021/10/04 03:04:20;;;;;;;;;;;20.20;67.10;;;;;;4965448;28;96467;-59
2021/10/04 03:06:51;;;;;;;;;;;20.10;66.90;;;;;;4964391;28;95749;-49
2021/10/04 03:09:21;;;;;;;;;;;20.10;67.60;;;;;;4965520;28;95955;-48
2021/10/04 03:11:52;;;;;;;;;;;20.20;60.50;;;;;;4956121;28;96234;-49
2021/10/04 03:14:23;;;;;;;;;;;20.30;67.80;;;;;;4964433;28;95910;-48
2021/10/04 03:16:54;;;;;;;;;;;20.30;67.90;;;;;;4991928;28;95955;-64
2021/10/04 03:19:24;;;;;;;;;;;20.40;68.00;;;;;;4966385;28;95832;-47
2021/10/04 03:21:54;;;;;;;;;;;20.50;68.20;;;;;;4966701;28;95805;-49
2021/10/04 03:24:24;;;;;;;;;;;20.60;68.40;;;;;;4964222;28;97836;-44
2021/10/04 03:26:56;;;;;;;;;;;20.60;68.60;;;;;;4965581;28;96123;-63
2021/10/04 03:29:27;;;;;;;;;;;20.60;68.30;;;;;;4995072;28;96218;-50
2021/10/04 03:32:01;;;;;;;;;;;20.60;67.10;;;;;;4960307;28;95909;-58
2021/10/04 03:34:36;;;;;;;;;;;20.60;67.30;;;;;;4964977;28;97358;-49
2021/10/04 03:37:06;;;;;;;;;;;20.50;67.20;;;;;;4959095;28;96912;-49
2021/10/04 03:39:36;;;;;;;;;;;20.50;67.20;;;;;;4963175;28;95326;-47
2021/10/04 03:42:11;;;;;;;;;;;20.50;67.10;;;;;;4964343;28;96059;-49
2021/10/04 03:44:41;;;;;;;;;;;20.60;64.90;;;;;;4963936;28;95908;-48
2021/10/04 03:47:12;;;;;;;;;;;20.60;67.40;;;;;;4960903;28;96738;-61
2021/10/04 03:49:42;;;;;;;;;;;20.70;67.50;;;;;;4963575;28;96770;-48
2021/10/04 03:52:12;;;;;;;;;;;20.70;67.70;;;;;;4963228;28;95802;-48
2021/10/04 03:54:43;;;;;;;;;;;20.70;67.60;;;;;;4963219;28;95824;-48
2021/10/04 03:57:18;;;;;;;;;;;20.80;67.80;;;;;;4962246;28;95414;-48
2021/10/04 03:59:51;;;;;;;;;;;20.90;67.80;;;;;;4960639;28;95848;-59
2021/10/04 04:02:23;;;;;;;;;;;20.90;67.80;;;;;;4957479;28;95965;-50
2021/10/04 04:04:54;;;;;;;;;;;21.00;67.90;;;;;;4963335;28;95992;-50
2021/10/04 04:07:27;;;;;;;;;;;21.00;67.90;;;;;;4995330;28;96023;-47
2021/10/04 04:09:57;;;;;;;;;;;21.00;66.80;;;;;;4962854;28;96419;-59
2021/10/04 04:12:28;;;;;;;;;;;20.90;66.40;;;;;;4956869;28;96291;-48
2021/10/04 04:14:58;;;;;;;;;;;20.90;66.70;;;;;;4964112;28;95890;-61
2021/10/04 04:17:29;;;;;;;;;;;20.80;66.80;;;;;;4960106;28;95726;-44
2021/10/04 04:19:59;;;;;;;;;;;20.80;66.90;;;;;;4964287;28;95995;-55
2021/10/04 04:22:30;;;;;;;;;;;20.80;67.00;;;;;;4963549;28;97264;-55
2021/10/04 04:28:44;;;;;;;;;;;20.80;67.20;;;;;;4949450;28;96341;-57
2021/10/04 04:31:16;;;;;;;;;;;20.80;66.60;;;;;;4974974;28;95990;-55
2021/10/04 04:33:50;;;;;;;;;;;20.70;66.20;;;;;;4966822;28;95823;-45
2021/10/04 04:36:19;;;;;;;;;;;20.60;66.60;;;;;;4967129;28;95941;-46
2021/10/04 04:38:50;;;;;;;;;;;20.60;66.70;;;;;;4968101;28;96302;-57
2021/10/04 04:41:21;;;;;;;;;;;20.60;67.00;;;;;;4968706;28;96426;-45
2021/10/04 04:43:50;;;;;;;;;;;20.60;67.10;;;;;;4968880;28;95790;-56
2021/10/04 04:46:19;;;;;;;;;;;20.60;67.20;;;;;;4961203;28;96795;-46
2021/10/04 04:48:49;;;;;;;;;;;20.60;67.40;;;;;;4966273;28;96783;-47
2021/10/04 04:51:18;;;;;;;;;;;20.60;67.40;;;;;;4967679;28;95831;-57
2021/10/04 04:53:50;;;;;;;;;;;20.50;67.40;;;;;;4967230;28;96061;-48
2021/10/04 04:56:20;;;;;;;;;;;20.60;67.70;;;;;;4967309;28;96419;-55
2021/10/04 04:58:50;;;;;;;;;;;20.60;67.70;;;;;;4967885;28;95874;-45
2021/10/04 05:01:20;;;;;;;;;;;20.60;67.60;;;;;;4963915;28;96973;-47
2021/10/04 05:03:51;;;;;;;;;;;20.60;67.60;;;;;;4966731;28;95838;-46
2021/10/04 05:06:22;;;;;;;;;;;20.60;67.60;;;;;;4965115;28;96329;-57
2021/10/04 05:08:54;;;;;;;;;;;20.60;67.60;;;;;;4966865;28;98629;-59
2021/10/04 05:11:25;;;;;;;;;;;20.60;67.70;;;;;;4985859;28;96387;-44
2021/10/04 05:13:55;;;;;;;;;;;20.60;67.80;;;;;;4962666;28;95354;-47
2021/10/04 05:16:26;;;;;;;;;;;20.60;67.50;;;;;;4962278;28;96722;-53
2021/10/04 05:18:56;;;;;;;;;;;20.60;67.80;;;;;;4966457;28;95364;-54
2021/10/04 05:21:26;;;;;;;;;;;20.60;67.70;;;;;;4964824;28;95860;-47
2021/10/04 05:23:55;;;;;;;;;;;20.60;67.70;;;;;;4967394;28;96775;-48
2021/10/04 05:26:25;;;;;;;;;;;20.60;67.90;;;;;;4965933;28;95880;-58
2021/10/04 05:28:56;;;;;;;;;;;20.50;67.90;;;;;;4965909;28;95905;-47
2021/10/04 05:31:26;;;;;;;;;;;20.60;68.30;;;;;;4961835;28;96193;-49
2021/10/04 05:33:57;;;;;;;;;;;20.60;68.30;;;;;;4967717;28;96219;-48
2021/10/04 05:36:27;;;;;;;;;;;20.70;68.30;;;;;;4966395;28;95853;-49
2021/10/04 05:39:00;;;;;;;;;;;20.80;68.30;;;;;;4965218;28;96176;-50
2021/10/04 05:41:32;;;;;;;;;;;20.80;68.30;;;;;;4966730;28;96363;-49
2021/10/04 05:44:02;;;;;;;;;;;20.90;68.10;;;;;;4966610;28;95623;-50
2021/10/04 05:46:33;;;;;;;;;;;21.00;68.20;;;;;;4962162;28;97306;-49
2021/10/04 05:49:03;;;;;;;;;;;21.10;68.20;;;;;;4966049;28;95364;-61
2021/10/04 05:51:33;;;;;;;;;;;21.10;68.10;;;;;;4997165;28;96867;-51
2021/10/04 05:54:06;;;;;;;;;;;21.20;68.20;;;;;;4966014;28;96678;-54
2021/10/04 05:56:36;;;;;;;;;;;21.20;68.20;;;;;;4965860;28;96205;-49
2021/10/04 05:59:06;;;;;;;;;;;21.20;68.20;;;;;;4963095;28;96644;-59
2021/10/04 06:01:37;;;;;;;;;;;21.20;67.20;;;;;;4960930;28;96343;-59
2021/10/04 06:04:08;;;;;;;;;;;21.10;66.90;;;;;;4965271;28;95660;-47
2021/10/04 06:06:39;;;;;;;;;;;21.00;67.20;;;;;;4965106;28;95867;-55
2021/10/04 06:09:10;;;;;;;;;;;21.00;67.20;;;;;;4963878;28;95644;-47
2021/10/04 06:11:40;;;;;;;;;;;21.00;67.40;;;;;;4953461;28;96910;-48
2021/10/04 06:14:11;;;;;;;;;;;21.00;67.30;;;;;;4964252;28;95381;-50
2021/10/04 06:16:42;;;;;;;;;;;21.00;68.30;;;;;;4960868;28;96924;-49
2021/10/04 06:19:12;;;;;;;;;;;21.10;67.80;;;;;;4966706;28;95349;-48
2021/10/04 06:21:41;;;;;;;;;;;21.20;68.00;;;;;;4965755;28;95442;-49
2021/10/04 06:24:11;;;;;;;;;;;21.20;68.00;;;;;;4967527;28;95661;-60
2021/10/04 06:26:40;;;;;;;;;;;21.30;68.00;;;;;;4964608;28;96132;-49
2021/10/04 06:29:11;;;;;;;;;;;21.30;67.00;;;;;;4959543;28;96363;-48
2021/10/04 06:31:43;;;;;;;;;;;21.20;66.80;;;;;;4960872;28;95709;-48
2021/10/04 06:34:13;;;;;;;;;;;21.20;67.10;;;;;;4967308;28;96486;-48
2021/10/04 06:36:43;;;;;;;;;;;21.10;67.10;;;;;;4981906;28;97945;-53
2021/10/04 06:39:13;;;;;;;;;;;21.10;67.20;;;;;;4965741;28;96462;-60
2021/10/04 06:41:44;;;;;;;;;;;21.10;67.20;;;;;;4966925;28;97684;-47
2021/10/04 06:44:13;;;;;;;;;;;21.00;67.20;;;;;;4963389;28;95924;-47
2021/10/04 06:46:59;;;;;;;;;;;21.00;67.30;;;;;;4960857;28;98978;-48
2021/10/04 06:49:33;;;;;;;;;;;20.90;67.40;;;;;;4963420;28;95326;-46
2021/10/04 06:52:04;;;;;;;;;;;20.80;67.20;;;;;;4959362;28;96308;-58
2021/10/04 06:54:35;;;;;;;;;;;20.80;67.20;;;;;;4960925;28;96543;-57
2021/10/04 06:57:06;;;;;;;;;;;20.70;66.90;;;;;;4961864;28;96598;-47
2021/10/04 06:59:35;;;;;;;;;;;20.70;67.10;;;;;;4961334;28;96144;-45
2021/10/04 07:02:10;;;;;;;;;;;20.70;67.10;;;;;;4958360;28;95451;-58
2021/10/04 07:04:43;;;;;;;;;;;20.60;66.90;;;;;;4963460;28;95743;-52
2021/10/04 07:07:14;;;;;;;;;;;20.60;67.00;;;;;;4995423;28;96769;-59
2021/10/04 07:09:45;;;;;;;;;;;20.50;67.00;;;;;;4962380;28;96052;-57
2021/10/04 07:12:15;;;;;;;;;;;20.50;67.10;;;;;;4954464;28;95875;-57
2021/10/04 07:14:46;;;;;;;;;;;20.50;67.20;;;;;;4962619;28;95695;-57
2021/10/04 07:17:17;;;;;;;;;;;20.40;67.30;;;;;;4959262;28;95794;-46
2021/10/04 07:19:48;;;;;;;;;;;20.40;67.40;;;;;;4964387;28;95927;-46
2021/10/04 07:22:17;;;;;;;;;;;20.30;67.40;;;;;;4966213;28;95578;-45
2021/10/04 07:24:47;;;;;;;;;;;20.30;67.60;;;;;;4964472;28;96372;-46
2021/10/04 07:27:17;;;;;;;;;;;20.30;67.70;;;;;;4995132;28;95823;-46
2021/10/04 07:29:49;;;;;;;;;;;20.30;67.80;;;;;;4965347;28;96842;-46
2021/10/04 07:32:22;;;;;;;;;;;20.20;67.90;;;;;;4960183;28;96218;-58
2021/10/04 07:34:52;;;;;;;;;;;20.20;68.00;;;;;;4961526;28;95842;-58
2021/10/04 07:37:22;;;;;;;;;;;20.20;68.10;;;;;;4963223;28;95881;-57
2021/10/04 07:39:54;;;;;;;;;;;20.20;68.10;;;;;;4996491;28;97670;-58
2021/10/04 07:42:24;;;;;;;;;;;20.10;68.20;;;;;;4965383;28;96055;-58
2021/10/04 07:44:54;;;;;;;;;;;20.10;68.20;;;;;;4966178;28;96160;-47
2021/10/04 07:47:25;;;;;;;;;;;20.10;68.40;;;;;;4976399;28;96251;-59
2021/10/04 07:49:54;;;;;;;;;;;20.00;68.30;;;;;;4980395;28;95777;-50
2021/10/04 07:52:23;;;;;;;;;;;20.00;68.40;;;;;;5010091;28;96901;-56
2021/10/04 07:54:54;;;;;;;;;;;20.00;68.30;;;;;;4981883;28;95615;-47
2021/10/04 07:57:25;;;;;;;;;;;19.90;68.40;;;;;;4978639;28;96403;-58
2021/10/04 07:59:56;;;;;;;;;;;19.80;68.40;;;;;;4980958;28;95754;-57
2021/10/04 08:02:26;;;;;;;;;;;19.80;68.40;;;;;;4978566;28;95933;-46
2021/10/04 08:04:56;;;;;;;;;;;19.80;68.50;;;;;;4985210;28;95829;-46
2021/10/04 08:07:27;;;;;;;;;;;19.70;68.50;;;;;;4983308;28;96521;-58
2021/10/04 08:09:57;;;;;;;;;;;19.70;68.70;;;;;;4983297;28;96598;-59
2021/10/04 08:12:28;;;;;;;;;;;19.70;68.70;;;;;;4980327;28;96189;-58
2021/10/04 08:14:58;;;;;;;;;;;19.60;68.70;;;;;;4985279;28;95307;-46
2021/10/04 08:17:29;;;;;;;;;;;19.60;68.80;;;;;;4981252;28;96152;-46
2021/10/04 08:20:00;;;;;;;;;;;19.60;68.90;;;;;;4986471;28;96177;-58
2021/10/04 08:22:32;;;;;;;;;;;19.50;69.00;;;;;;4985569;28;96404;-58
2021/10/04 08:25:03;;;;;;;;;;;19.50;69.10;;;;;;4986582;28;96029;-58
2021/10/04 08:27:33;;;;;;;;;;;19.40;69.10;;;;;;4985535;28;95870;-46
2021/10/04 08:30:04;;;;;;;;;;;19.50;61.40;;;;;;4980423;28;95653;-46
2021/10/04 08:32:36;;;;;;;;;;;19.40;69.00;;;;;;4984549;28;95649;-46
2021/10/04 08:35:07;;;;;;;;;;;19.30;69.10;;;;;;4986548;28;95805;-58
2021/10/04 08:37:36;;;;;;;;;;;19.30;69.20;;;;;;5016058;28;96827;-57
2021/10/04 08:40:07;;;;;;;;;;;19.20;69.20;;;;;;4984218;28;95846;-47
2021/10/04 08:42:40;;;;;;;;;;;19.20;69.20;;;;;;5015582;28;95994;-58
2021/10/04 08:45:10;;;;;;;;;;;19.20;69.20;;;;;;4986975;28;95823;-46
2021/10/04 08:47:41;;;;;;;;;;;19.20;69.30;;;;;;4984275;28;96517;-56
2021/10/04 08:50:13;;;;;;;;;;;19.10;69.30;;;;;;4985862;28;96092;-59
2021/10/04 08:52:43;;;;;;;;;;;19.10;69.40;;;;;;4984083;28;96563;-58
2021/10/04 08:55:18;;;;;;;;;;;19.10;69.30;;;;;;4981233;28;95238;-60
2021/10/04 08:57:50;;;;;;;;;;;19.10;69.40;;;;;;4983591;28;97346;-62
2021/10/04 09:00:21;;;;;;;;;;;19.00;69.40;;;;;;4979703;28;95736;-64
2021/10/04 09:03:00;;;;;;;;;;;19.00;69.40;;;;;;4981076;28;95882;-62
2021/10/04 09:05:31;;;;;;;;;;;19.10;63.90;;;;;;4979146;28;96701;-64
2021/10/04 09:08:14;;;;;;;;;;;18.90;69.30;;;;;;4981158;28;96490;-48
2021/10/04 09:10:49;;;;;;;;;;;18.90;69.20;;;;;;4970429;28;96704;-63
2021/10/04 09:13:21;;;;;;;;;;;18.90;69.20;;;;;;4973656;28;96119;-63
2021/10/04 09:15:53;;;;;;;;;;;18.90;69.20;;;;;;4978324;28;96125;-64
2021/10/04 09:18:27;;;;;;;;;;;18.80;69.10;;;;;;4983740;28;96666;-63
2021/10/04 09:20:57;;;;;;;;;;;18.80;69.20;;;;;;4987614;28;95795;-49
2021/10/04 09:23:29;;;;;;;;;;;18.80;69.20;;;;;;4987661;28;95695;-47
2021/10/04 09:25:59;;;;;;;;;;;18.80;69.10;;;;;;4987276;28;95918;-62
2021/10/04 09:28:30;;;;;;;;;;;18.80;69.20;;;;;;4984326;28;97944;-63
2021/10/04 09:31:36;;;;;;;;;;;18.70;69.00;;;;;;4978542;28;95444;-50
2021/10/04 09:34:10;;;;;;;;;;;18.70;69.00;;;;;;4974372;28;96161;-63
2021/10/04 09:36:41;;;;;;;;;;;18.80;69.20;;;;;;4994514;28;95701;-52
2021/10/04 09:39:12;;;;;;;;;;;18.70;69.20;;;;;;4977006;28;96944;-50
2021/10/04 09:42:01;;;;;;;;;;;18.80;69.20;;;;;;4994919;28;95928;-50
2021/10/04 09:44:48;;;;;;;;;;;18.80;69.10;;;;;;4975902;28;96406;-51
2021/10/04 09:47:21;;;;;;;;;;;18.80;69.10;;;;;;4988433;28;96077;-49
2021/10/04 09:50:25;;;;;;;;;;;18.80;69.00;;;;;;4991310;28;96138;-48
2021/10/04 09:52:56;;;;;;;;;;;18.80;69.60;;;;;;4913157;28;96697;-51
2021/10/04 09:55:31;;;;;;;;;;;18.70;68.90;;;;;;4913161;28;95933;-48
2021/10/04 09:58:01;;;;;;;;;;;18.80;69.00;;;;;;4915455;28;96337;-62
2021/10/04 10:00:40;;;;;;;;;;;18.80;69.00;;;;;;4909350;28;96351;-62
2021/10/04 10:03:11;;;;;;;;;;;18.80;68.90;;;;;;4913040;28;96564;-65
2021/10/04 10:05:46;;;;;;;;;;;18.80;61.10;;;;;;4910149;28;96168;-63
2021/10/04 10:08:20;;;;;;;;;;;18.80;68.90;;;;;;4916420;28;96573;-52
2021/10/04 10:10:51;;;;;;;;;;;18.70;68.80;;;;;;4913050;28;95897;-48
2021/10/04 10:13:22;;;;;;;;;;;18.80;68.90;;;;;;4918619;28;100855;-63
2021/10/04 10:16:07;;;;;;;;;;;18.70;68.70;;;;;;4917443;28;96528;-48
2021/10/04 10:18:46;;;;;;;;;;;18.70;68.80;;;;;;4922364;28;95939;-63
2021/10/04 10:21:18;;;;;;;;;;;18.70;68.70;;;;;;4919092;28;96467;-63
2021/10/04 10:23:56;;;;;;;;;;;18.80;69.00;;;;;;4921115;28;96115;-48
2021/10/04 10:26:27;;;;;;;;;;;18.70;68.70;;;;;;4933626;28;96930;-49
2021/10/04 10:29:20;;;;;;;;;;;18.70;68.70;;;;;;4981455;28;95598;-48
2021/10/04 10:31:51;;;;;;;;;;;18.70;68.60;;;;;;4974171;28;96468;-48
2021/10/04 10:34:32;;;;;;;;;;;18.80;68.70;;;;;;4983252;28;96120;-48
2021/10/04 10:37:08;;;;;;;;;;;18.70;68.60;;;;;;4982207;28;96258;-63
2021/10/04 10:39:42;;;;;;;;;;;18.70;68.50;;;;;;4982527;28;96739;-51
2021/10/04 10:42:13;;;;;;;;;;;18.70;68.50;;;;;;4983422;28;96449;-50
2021/10/04 10:44:54;;;;;;;;;;;18.70;68.50;;;;;;4983678;28;95737;-51
2021/10/04 10:47:33;;;;;;;;;;;18.70;68.50;;;;;;4977589;28;96094;-49
2021/10/04 10:50:09;;;;;;;;;;;18.70;68.50;;;;;;4980728;28;95698;-51
2021/10/04 10:52:39;;;;;;;;;;;18.60;68.60;;;;;;5009424;27;97040;-49
2021/10/04 10:55:19;;;;;;;;;;;18.60;68.50;;;;;;4978938;28;96315;-48
2021/10/04 10:57:52;;;;;;;;;;;18.60;68.50;;;;;;4979250;28;96359;-50
2021/10/04 11:00:37;;;;;;;;;;;18.70;62.70;;;;;;4978532;28;96202;-49
2021/10/04 11:03:21;;;;;;;;;;;18.60;68.60;;;;;;4980821;28;105724;-51
2021/10/04 11:05:57;;;;;;;;;;;18.60;68.70;;;;;;4981372;28;95853;-49
2021/10/04 11:08:30;;;;;;;;;;;18.60;68.70;;;;;;4980386;28;96640;-48
2021/10/04 11:11:03;;;;;;;;;;;18.60;68.70;;;;;;4972446;28;95937;-49
2021/10/04 11:13:34;;;;;;;;;;;18.50;68.70;;;;;;4978866;28;96002;-50
2021/10/04 11:16:12;;;;;;;;;;;18.60;68.70;;;;;;4978035;28;96616;-48
2021/10/04 11:18:44;;;;;;;;;;;18.60;68.70;;;;;;4985083;28;95855;-47
2021/10/04 11:21:17;;;;;;;;;;;18.60;69.10;;;;;;4985301;28;95694;-49
2021/10/04 11:23:47;;;;;;;;;;;18.60;69.40;;;;;;4983930;28;96145;-51
2021/10/04 11:26:22;;;;;;;;;;;18.70;70.00;;;;;;4985747;28;95970;-48
2021/10/04 11:28:53;;;;;;;;;;;18.70;69.50;;;;;;4986130;28;96941;-49
2021/10/04 11:31:25;;;;;;;;;;;18.80;69.60;;;;;;4982725;28;95842;-49
2021/10/04 11:33:57;;;;;;;;;;;18.90;69.50;;;;;;5017924;27;96425;-50
2021/10/04 11:36:33;;;;;;;;;;;19.10;69.50;;;;;;4987021;28;95850;-52
2021/10/04 11:39:30;;;;;;;;;;;19.20;69.20;;;;;;4985351;28;95711;-48
2021/10/04 11:42:04;;;;;;;;;;;19.30;69.20;;;;;;4987096;28;96001;-53
2021/10/04 11:44:36;;;;;;;;;;;19.40;65.10;;;;;;4985271;28;96466;-49
2021/10/04 11:47:07;;;;;;;;;;;19.40;69.00;;;;;;4981781;28;95850;-48
2021/10/04 11:49:38;;;;;;;;;;;19.50;68.80;;;;;;4986280;28;95857;-48
2021/10/04 11:52:15;;;;;;;;;;;19.60;68.70;;;;;;4986942;28;95878;-50
2021/10/04 11:54:49;;;;;;;;;;;19.70;68.60;;;;;;4987603;28;96872;-51
2021/10/04 11:57:21;;;;;;;;;;;19.80;68.50;;;;;;4986766;28;96075;-50
2021/10/04 11:59:54;;;;;;;;;;;19.90;68.40;;;;;;4986682;28;95696;-49
2021/10/04 12:02:27;;;;;;;;;;;20.00;68.20;;;;;;4983151;28;95407;-52
2021/10/04 12:05:28;;;;;;;;;;;20.10;68.10;;;;;;4987051;28;96465;-48
2021/10/04 12:08:09;;;;;;;;;;;20.10;68.00;;;;;;4981844;28;95964;-48
2021/10/04 12:10:44;;;;;;;;;;;20.20;67.90;;;;;;4981002;28;95960;-51
2021/10/04 12:13:14;;;;;;;;;;;20.20;67.70;;;;;;4983393;28;96186;-50
2021/10/04 12:15:47;;;;;;;;;;;20.30;67.60;;;;;;4983594;28;95926;-48
2021/10/04 12:18:20;;;;;;;;;;;20.40;67.60;;;;;;4985408;28;95389;-48
2021/10/04 12:20:51;;;;;;;;;;;20.40;67.40;;;;;;4985137;28;95806;-49
2021/10/04 12:23:21;;;;;;;;;;;20.40;67.30;;;;;;4983977;28;95168;-50
2021/10/04 12:25:52;;;;;;;;;;;20.40;67.00;;;;;;4985141;28;95968;-47
2021/10/04 12:28:22;;;;;;;;;;;20.50;66.90;;;;;;4985673;28;95976;-47
2021/10/04 12:30:54;;;;;;;;;;;20.40;66.20;;;;;;4975509;28;95759;-48
2021/10/04 12:33:48;;;;;;;;;;;20.30;65.20;;;;;;4963457;28;95812;-48
2021/10/04 12:36:17;;;;;;;;;;;20.30;65.50;;;;;;4962594;28;95762;-49
2021/10/04 12:38:51;;;;;;;;;;;20.20;65.50;;;;;;4964485;28;96848;-54
2021/10/04 12:41:37;;;;;;;;;;;20.40;58.30;;;;;;4965144;28;95674;-51
2021/10/04 12:44:19;;;;;;;;;;;20.40;66.00;;;;;;4964877;28;95872;-49
2021/10/04 12:47:04;;;;;;;;;;;20.50;65.90;;;;;;4959701;28;95843;-48
2021/10/04 12:49:34;;;;;;;;;;;20.60;65.90;;;;;;4965724;28;95417;-50
2021/10/04 12:52:06;;;;;;;;;;;20.60;65.90;;;;;;4966796;28;96064;-51
2021/10/04 12:54:36;;;;;;;;;;;20.70;65.90;;;;;;4968287;28;95355;-52
2021/10/04 12:57:07;;;;;;;;;;;20.70;65.90;;;;;;4967593;28;95864;-49
2021/10/04 12:59:37;;;;;;;;;;;20.80;65.90;;;;;;4967638;28;95804;-48
2021/10/04 13:02:08;;;;;;;;;;;20.80;65.80;;;;;;4961303;28;96518;-49
2021/10/04 13:04:40;;;;;;;;;;;20.90;65.70;;;;;;4998521;28;96050;-50
2021/10/04 13:07:11;;;;;;;;;;;20.90;65.70;;;;;;4997925;28;97708;-51
2021/10/04 13:09:42;;;;;;;;;;;21.00;65.70;;;;;;4963713;28;95899;-50
2021/10/04 13:12:15;;;;;;;;;;;21.00;65.70;;;;;;4957927;28;96178;-49
2021/10/04 13:14:46;;;;;;;;;;;21.00;65.60;;;;;;4967222;28;95843;-49
2021/10/04 13:17:16;;;;;;;;;;;21.10;65.70;;;;;;4962418;28;97003;-49
2021/10/04 13:19:51;;;;;;;;;;;21.10;64.00;;;;;;4967013;28;96125;-51
2021/10/04 13:22:22;;;;;;;;;;;21.00;63.50;;;;;;4968535;28;95874;-48
2021/10/04 13:24:53;;;;;;;;;;;20.90;64.60;;;;;;4966810;28;96004;-49
2021/10/04 13:27:24;;;;;;;;;;;21.00;64.90;;;;;;4967086;28;96633;-48
2021/10/04 13:29:55;;;;;;;;;;;21.00;64.90;;;;;;4967803;28;96376;-49
2021/10/04 13:32:25;;;;;;;;;;;21.10;65.00;;;;;;4963399;28;95801;-50
2021/10/04 13:34:56;;;;;;;;;;;21.10;65.00;;;;;;4966559;28;96632;-51
2021/10/04 13:37:25;;;;;;;;;;;21.20;64.90;;;;;;4998490;28;96321;-50
2021/10/04 13:39:55;;;;;;;;;;;21.20;65.00;;;;;;4966125;28;96004;-48
2021/10/04 13:42:26;;;;;;;;;;;21.20;65.10;;;;;;4995766;28;96221;-49
2021/10/04 13:44:56;;;;;;;;;;;21.30;65.00;;;;;;4968421;28;96248;-50
2021/10/04 13:47:25;;;;;;;;;;;21.30;65.10;;;;;;4960705;28;96806;-51
2021/10/04 13:49:55;;;;;;;;;;;21.30;65.00;;;;;;4966968;28;96341;-51
2021/10/04 13:52:25;;;;;;;;;;;21.30;65.60;;;;;;4967380;28;96302;-48
2021/10/04 13:54:55;;;;;;;;;;;21.30;65.10;;;;;;4968175;28;95899;-49
2021/10/04 13:57:27;;;;;;;;;;;21.40;65.40;;;;;;4965693;28;96487;-50
2021/10/04 13:59:58;;;;;;;;;;;21.40;65.20;;;;;;4966199;28;95816;-48
2021/10/04 14:02:39;;;;;;;;;;;21.40;65.10;;;;;;4967224;28;95310;-49
2021/10/04 14:05:12;;;;;;;;;;;21.40;65.10;;;;;;4967321;28;95768;-48
2021/10/04 14:07:42;;;;;;;;;;;21.50;65.20;;;;;;4966436;28;98660;-48
2021/10/04 14:10:12;;;;;;;;;;;21.50;65.20;;;;;;4964477;28;96023;-52
2021/10/04 14:12:43;;;;;;;;;;;21.50;65.00;;;;;;4961050;28;96531;-49
2021/10/04 14:15:14;;;;;;;;;;;21.50;65.00;;;;;;4961893;28;95354;-49
2021/10/04 14:17:45;;;;;;;;;;;21.60;64.90;;;;;;4966290;28;96852;-49
2021/10/04 14:20:15;;;;;;;;;;;21.60;65.00;;;;;;4967135;28;95797;-49
2021/10/04 14:22:46;;;;;;;;;;;21.60;64.80;;;;;;4968993;28;96512;-53
2021/10/04 14:25:18;;;;;;;;;;;21.70;65.00;;;;;;4968391;28;95933;-50
2021/10/04 14:27:48;;;;;;;;;;;21.70;64.80;;;;;;4998759;28;96551;-49
2021/10/04 14:30:24;;;;;;;;;;;21.70;64.80;;;;;;4962444;28;99281;-49
2021/10/04 14:33:10;;;;;;;;;;;21.80;64.70;;;;;;4973207;28;96247;-50
2021/10/04 14:35:40;;;;;;;;;;;21.70;62.30;;;;;;4975418;28;95891;-50
2021/10/04 14:38:12;;;;;;;;;;;21.70;61.00;;;;;;4991861;28;96049;-52
2021/10/04 14:40:42;;;;;;;;;;;21.60;62.20;;;;;;4977341;28;95266;-53
2021/10/04 14:43:12;;;;;;;;;;;21.50;62.10;;;;;;4977277;28;95848;-48
2021/10/04 14:45:42;;;;;;;;;;;21.40;61.30;;;;;;4971155;28;96596;-50
2021/10/04 14:48:12;;;;;;;;;;;21.30;61.00;;;;;;4962122;28;96263;-48